Terminal Aerodrome Forecast
Issued by NWS

Home | Current Version | Previous Version | Text Only | Print | Product List | Glossary On
Versions: 1 2 3 4 5 6 7 8 9 10 11 12 13 14 15 16 17 18 19 20 21 22 23 24
000
FTUS45 KSLC 181935 AAA
TAFLGU
TAF AMD
KLGU 181935Z 1820/1918 21013G20KT P6SM BKN100
     FM190200 36005KT P6SM VCSH FEW060 BKN080
     FM190500 36005KT P6SM -SHRA SCT050 BKN080
     FM191200 VRB04KT P6SM BKN100=

USA.gov is the U.S. government's official web portal to all federal, state and local government web resources and services.